Al Kharsaah — C6VG3 — position and weather

sailwx.info

Track history (hours):
 
Tides and Currents Weather Stations Pressure Air Temp Water Temp Dewpoint Dewpoint Depression Visibility Wind Speed Wind Dir Waves Ship Positions

Al Kharsaah

Last reported at 2015-Jul-24 14:08 UTC. Time now 2015-Aug-05 08:30 UTC.
Position N 03°21' E 100°31'.
Warning: this ship's position is 11 days out of date.

Length 315 m; draft 9.5 m.

Type: Ship (hazmat cat D). MMSI: 309333000.

Date/timePositionNaut miles runAvg speedWind from/ knotsBaromVisibWave heightAir tempDewpointWater temp
2015-Jul-24 14:08N 03°21' E 100°31'1316.0
2015-Jul-24 13:20N 03°11' E 100°39'2816.0
2015-Jul-24 11:33N 02°51' E 100°59'3416.8
2015-Jul-24 09:33N 02°35' E 101°29'3416.8
2015-Jul-24 07:32N 02°15' E 101°56'11916.0
2015-Jul-24 00:08N 01°11' E 103°37'5 6.2
2015-Jul-23 23:23N 01°11' E 103°41'0 0.0
2015-Jul-23 21:06N 01°11' E 103°41'0 0.1
2015-Jul-23 20:33N 01°11' E 103°41'0 0.0
2015-Jul-23 19:27N 01°11' E 103°41'0 0.0
2015-Jul-23 13:15N 01°11' E 103°41'0 0.1
2015-Jul-23 08:09N 01°11' E 103°41'0 0.2
2015-Jul-23 06:33N 01°11' E 103°41'0 0.0
2015-Jul-23 04:18N 01°11' E 103°41'0 0.4
2015-Jul-23 03:31N 01°11' E 103°41'3 2.8
2015-Jul-23 02:32N 01°09' E 103°43'9 9.2
2015-Jul-23 01:32N 01°12' E 103°52'1312.9
2015-Jul-23 00:33N 01°16' E 104°04'  
2015-Jul-16 07:20N 33°55' E 134°58'8 9.8
2015-Jul-16 06:32N 34°02' E 134°58'1515.2
2015-Jul-16 05:32N 34°18' E 134°59'1313.1
2015-Jul-16 04:33N 34°30' E 135°04'9 8.6
2015-Jul-16 03:33N 34°37' E 134°58'16 0.5
2015-Jul-14 20:08N 34°43' E 134°41'4 7.2
2015-Jul-14 19:33N 34°39' E 134°41'1610.8
2015-Jul-14 18:06N 34°38' E 135°00'610.1
2015-Jul-14 17:33N 34°35' E 135°06'6 6.2
2015-Jul-14 16:33N 34°29' E 135°06'1211.9
2015-Jul-14 15:33N 34°18' E 134°60'1010.5
2015-Jul-14 14:33N 34°08' E 134°60'  
Track history (hours):
 
Tides and Currents Weather Stations Pressure Air Temp Water Temp Dewpoint Dewpoint Depression Visibility Wind Speed Wind Dir Waves Ship Positions

Al Kharsaah

Last reported at 2015-Jul-24 14:08 UTC. Time now 2015-Aug-05 08:30 UTC.
Position N 03°21' E 100°31'.
Warning: this ship's position is 11 days out of date.

Length 315 m; draft 9.5 m.

Type: Ship (hazmat cat D). MMSI: 309333000.

Date/timePositionNaut miles runAvg speedWind from/ knotsBaromVisibWave heightAir tempDewpointWater temp
2015-Jul-24 14:08N 03°21' E 100°31'1316.0
2015-Jul-24 13:20N 03°11' E 100°39'2816.0
2015-Jul-24 11:33N 02°51' E 100°59'3416.8
2015-Jul-24 09:33N 02°35' E 101°29'3416.8
2015-Jul-24 07:32N 02°15' E 101°56'11916.0
2015-Jul-24 00:08N 01°11' E 103°37'5 6.2
2015-Jul-23 23:23N 01°11' E 103°41'0 0.0
2015-Jul-23 21:06N 01°11' E 103°41'0 0.1
2015-Jul-23 20:33N 01°11' E 103°41'0 0.0
2015-Jul-23 19:27N 01°11' E 103°41'0 0.0
2015-Jul-23 13:15N 01°11' E 103°41'0 0.1
2015-Jul-23 08:09N 01°11' E 103°41'0 0.2
2015-Jul-23 06:33N 01°11' E 103°41'0 0.0
2015-Jul-23 04:18N 01°11' E 103°41'0 0.4
2015-Jul-23 03:31N 01°11' E 103°41'3 2.8
2015-Jul-23 02:32N 01°09' E 103°43'9 9.2
2015-Jul-23 01:32N 01°12' E 103°52'1312.9
2015-Jul-23 00:33N 01°16' E 104°04'  
2015-Jul-16 07:20N 33°55' E 134°58'8 9.8
2015-Jul-16 06:32N 34°02' E 134°58'1515.2
2015-Jul-16 05:32N 34°18' E 134°59'1313.1
2015-Jul-16 04:33N 34°30' E 135°04'9 8.6
2015-Jul-16 03:33N 34°37' E 134°58'16 0.5
2015-Jul-14 20:08N 34°43' E 134°41'4 7.2
2015-Jul-14 19:33N 34°39' E 134°41'1610.8
2015-Jul-14 18:06N 34°38' E 135°00'610.1
2015-Jul-14 17:33N 34°35' E 135°06'6 6.2
2015-Jul-14 16:33N 34°29' E 135°06'1211.9
2015-Jul-14 15:33N 34°18' E 134°60'1010.5
2015-Jul-14 14:33N 34°08' E 134°60'  

Dump ship's entire track history